sensor_id;sensor_type;location;lat;lon;timestamp;temperature;humidity
22607;DHT22;11470;20.968;105.834;2023-05-07T00:01:25;28.60;99.90
22607;DHT22;11470;20.968;105.834;2023-05-07T00:06:32;28.60;99.90
22607;DHT22;11470;20.968;105.834;2023-05-07T00:11:38;28.80;99.90
22607;DHT22;11470;20.968;105.834;2023-05-07T00:16:43;29.00;99.90
22607;DHT22;11470;20.968;105.834;2023-05-07T00:21:48;29.00;99.90
22607;DHT22;11470;20.968;105.834;2023-05-07T00:26:54;29.00;99.90
22607;DHT22;11470;20.968;105.834;2023-05-07T00:31:59;29.10;99.90
22607;DHT22;11470;20.968;105.834;2023-05-07T00:37:04;29.20;99.90
22607;DHT22;11470;20.968;105.834;2023-05-07T00:42:11;29.40;99.90
22607;DHT22;11470;20.968;105.834;2023-05-07T00:47:16;29.50;99.90
22607;DHT22;11470;20.968;105.834;2023-05-07T00:52:22;29.70;99.90
22607;DHT22;11470;20.968;105.834;2023-05-07T00:57:28;29.70;99.90
22607;DHT22;11470;20.968;105.834;2023-05-07T01:02:36;29.80;99.90
22607;DHT22;11470;20.968;105.834;2023-05-07T01:07:42;29.80;99.90
22607;DHT22;11470;20.968;105.834;2023-05-07T01:12:48;29.80;99.90
22607;DHT22;11470;20.968;105.834;2023-05-07T01:17:56;29.90;99.90
22607;DHT22;11470;20.968;105.834;2023-05-07T01:23:07;29.90;99.90
22607;DHT22;11470;20.968;105.834;2023-05-07T01:28:14;30.20;99.90
22607;DHT22;11470;20.968;105.834;2023-05-07T01:33:21;30.30;99.90
22607;DHT22;11470;20.968;105.834;2023-05-07T01:38:27;30.50;99.90
22607;DHT22;11470;20.968;105.834;2023-05-07T01:43:33;30.60;99.90
22607;DHT22;11470;20.968;105.834;2023-05-07T01:48:39;30.90;99.90
22607;DHT22;11470;20.968;105.834;2023-05-07T01:53:44;31.00;99.90
22607;DHT22;11470;20.968;105.834;2023-05-07T01:58:55;31.20;99.90
22607;DHT22;11470;20.968;105.834;2023-05-07T02:04:00;31.30;99.90
22607;DHT22;11470;20.968;105.834;2023-05-07T02:09:06;31.50;99.90
22607;DHT22;11470;20.968;105.834;2023-05-07T02:14:18;31.60;99.90
22607;DHT22;11470;20.968;105.834;2023-05-07T02:19:25;32.20;99.90
22607;DHT22;11470;20.968;105.834;2023-05-07T02:24:30;32.60;99.90
22607;DHT22;11470;20.968;105.834;2023-05-07T02:29:36;32.70;99.90
22607;DHT22;11470;20.968;105.834;2023-05-07T02:34:42;33.00;99.90
22607;DHT22;11470;20.968;105.834;2023-05-07T02:39:47;33.10;99.90
22607;DHT22;11470;20.968;105.834;2023-05-07T02:44:53;33.60;99.90
22607;DHT22;11470;20.968;105.834;2023-05-07T02:49:58;34.10;99.90
22607;DHT22;11470;20.968;105.834;2023-05-07T02:55:03;34.10;99.90
22607;DHT22;11470;20.968;105.834;2023-05-07T03:00:12;34.90;99.90
22607;DHT22;11470;20.968;105.834;2023-05-07T03:05:25;35.30;99.90
22607;DHT22;11470;20.968;105.834;2023-05-07T03:10:30;35.10;99.90
22607;DHT22;11470;20.968;105.834;2023-05-07T03:15:35;35.10;99.90
22607;DHT22;11470;20.968;105.834;2023-05-07T03:20:41;35.40;99.90
22607;DHT22;11470;20.968;105.834;2023-05-07T03:25:47;35.60;99.90
22607;DHT22;11470;20.968;105.834;2023-05-07T03:30:53;35.80;99.90
22607;DHT22;11470;20.968;105.834;2023-05-07T03:35:58;35.60;99.90
22607;DHT22;11470;20.968;105.834;2023-05-07T03:41:04;35.40;99.90
22607;DHT22;11470;20.968;105.834;2023-05-07T03:46:11;35.70;99.90
22607;DHT22;11470;20.968;105.834;2023-05-07T03:51:17;36.00;99.90
22607;DHT22;11470;20.968;105.834;2023-05-07T03:56:23;35.80;99.90
22607;DHT22;11470;20.968;105.834;2023-05-07T04:01:33;35.90;99.90
22607;DHT22;11470;20.968;105.834;2023-05-07T04:06:39;36.80;99.90
22607;DHT22;11470;20.968;105.834;2023-05-07T04:11:44;37.10;99.90
22607;DHT22;11470;20.968;105.834;2023-05-07T04:16:50;36.80;99.90
22607;DHT22;11470;20.968;105.834;2023-05-07T04:21:56;37.00;99.90
22607;DHT22;11470;20.968;105.834;2023-05-07T04:27:02;37.00;99.90
22607;DHT22;11470;20.968;105.834;2023-05-07T04:32:08;36.90;99.90
22607;DHT22;11470;20.968;105.834;2023-05-07T04:37:15;37.40;98.20
22607;DHT22;11470;20.968;105.834;2023-05-07T04:42:21;37.60;97.40
22607;DHT22;11470;20.968;105.834;2023-05-07T04:47:27;38.10;97.40
22607;DHT22;11470;20.968;105.834;2023-05-07T04:52:33;37.70;96.70
22607;DHT22;11470;20.968;105.834;2023-05-07T04:57:41;37.50;97.10
22607;DHT22;11470;20.968;105.834;2023-05-07T05:02:48;39.00;95.10
22607;DHT22;11470;20.968;105.834;2023-05-07T05:07:56;40.20;91.30
22607;DHT22;11470;20.968;105.834;2023-05-07T05:13:02;40.50;86.70
22607;DHT22;11470;20.968;105.834;2023-05-07T05:18:08;40.90;84.40
22607;DHT22;11470;20.968;105.834;2023-05-07T05:23:15;40.80;85.00
22607;DHT22;11470;20.968;105.834;2023-05-07T05:28:21;40.90;82.10
22607;DHT22;11470;20.968;105.834;2023-05-07T05:33:27;40.30;85.30
22607;DHT22;11470;20.968;105.834;2023-05-07T05:38:39;39.60;85.90
22607;DHT22;11470;20.968;105.834;2023-05-07T05:43:46;39.00;90.30
22607;DHT22;11470;20.968;105.834;2023-05-07T05:48:52;38.70;90.30
22607;DHT22;11470;20.968;105.834;2023-05-07T05:53:57;40.00;86.70
22607;DHT22;11470;20.968;105.834;2023-05-07T05:59:04;40.80;83.70
22607;DHT22;11470;20.968;105.834;2023-05-07T06:04:10;41.90;81.10
22607;DHT22;11470;20.968;105.834;2023-05-07T06:09:16;41.80;73.00
22607;DHT22;11470;20.968;105.834;2023-05-07T06:14:21;40.50;80.00
22607;DHT22;11470;20.968;105.834;2023-05-07T06:19:29;39.00;85.90
22607;DHT22;11470;20.968;105.834;2023-05-07T06:24:36;40.20;83.60
22607;DHT22;11470;20.968;105.834;2023-05-07T06:29:43;41.10;82.80
22607;DHT22;11470;20.968;105.834;2023-05-07T06:34:50;42.70;76.70
22607;DHT22;11470;20.968;105.834;2023-05-07T06:39:56;41.10;77.90
22607;DHT22;11470;20.968;105.834;2023-05-07T06:45:05;39.50;84.10
22607;DHT22;11470;20.968;105.834;2023-05-07T06:50:11;40.90;78.80
22607;DHT22;11470;20.968;105.834;2023-05-07T06:55:16;42.40;74.80
22607;DHT22;11470;20.968;105.834;2023-05-07T07:00:26;43.20;73.20
22607;DHT22;11470;20.968;105.834;2023-05-07T07:05:31;43.80;70.30
22607;DHT22;11470;20.968;105.834;2023-05-07T07:10:39;42.70;70.60
22607;DHT22;11470;20.968;105.834;2023-05-07T07:15:44;42.80;69.40
22607;DHT22;11470;20.968;105.834;2023-05-07T07:20:50;43.70;68.60
22607;DHT22;11470;20.968;105.834;2023-05-07T07:25:55;44.30;68.40
22607;DHT22;11470;20.968;105.834;2023-05-07T07:31:03;43.30;67.20
22607;DHT22;11470;20.968;105.834;2023-05-07T07:36:09;42.90;71.10
22607;DHT22;11470;20.968;105.834;2023-05-07T07:41:15;43.30;68.80
22607;DHT22;11470;20.968;105.834;2023-05-07T07:46:22;43.60;70.20
22607;DHT22;11470;20.968;105.834;2023-05-07T07:51:29;43.60;68.60
22607;DHT22;11470;20.968;105.834;2023-05-07T07:56:36;43.10;66.40
22607;DHT22;11470;20.968;105.834;2023-05-07T08:01:42;43.00;65.90
22607;DHT22;11470;20.968;105.834;2023-05-07T08:06:48;42.00;72.40
22607;DHT22;11470;20.968;105.834;2023-05-07T08:11:54;41.80;71.30
22607;DHT22;11470;20.968;105.834;2023-05-07T08:17:00;40.40;77.50
22607;DHT22;11470;20.968;105.834;2023-05-07T08:22:06;39.40;75.50
22607;DHT22;11470;20.968;105.834;2023-05-07T08:27:12;38.40;81.40
22607;DHT22;11470;20.968;105.834;2023-05-07T08:32:18;38.40;83.10
22607;DHT22;11470;20.968;105.834;2023-05-07T08:37:23;38.30;82.00
22607;DHT22;11470;20.968;105.834;2023-05-07T08:42:31;37.50;86.80
22607;DHT22;11470;20.968;105.834;2023-05-07T08:47:44;37.50;88.80
22607;DHT22;11470;20.968;105.834;2023-05-07T08:52:54;37.40;86.30
22607;DHT22;11470;20.968;105.834;2023-05-07T08:58:01;37.10;89.40
22607;DHT22;11470;20.968;105.834;2023-05-07T09:03:08;36.90;88.60
22607;DHT22;11470;20.968;105.834;2023-05-07T09:08:24;37.00;90.10
22607;DHT22;11470;20.968;105.834;2023-05-07T09:13:34;36.90;91.20
22607;DHT22;11470;20.968;105.834;2023-05-07T09:18:42;36.60;92.00
22607;DHT22;11470;20.968;105.834;2023-05-07T09:23:54;36.20;93.40
22607;DHT22;11470;20.968;105.834;2023-05-07T09:29:10;36.20;94.20
22607;DHT22;11470;20.968;105.834;2023-05-07T09:34:16;35.80;95.60
22607;DHT22;11470;20.968;105.834;2023-05-07T09:39:24;35.40;97.80
22607;DHT22;11470;20.968;105.834;2023-05-07T09:44:29;35.20;98.80
22607;DHT22;11470;20.968;105.834;2023-05-07T09:49:39;34.90;99.90
22607;DHT22;11470;20.968;105.834;2023-05-07T09:54:47;34.50;99.90
22607;DHT22;11470;20.968;105.834;2023-05-07T09:59:58;33.90;99.90
22607;DHT22;11470;20.968;105.834;2023-05-07T10:05:09;33.90;99.90
22607;DHT22;11470;20.968;105.834;2023-05-07T10:10:15;33.90;99.90
22607;DHT22;11470;20.968;105.834;2023-05-07T10:15:22;34.00;99.90
22607;DHT22;11470;20.968;105.834;2023-05-07T10:20:32;33.90;99.90
22607;DHT22;11470;20.968;105.834;2023-05-07T10:25:40;33.60;99.90
22607;DHT22;11470;20.968;105.834;2023-05-07T10:36:36;32.90;99.90
22607;DHT22;11470;20.968;105.834;2023-05-07T10:41:42;32.60;99.90
22607;DHT22;11470;20.968;105.834;2023-05-07T10:47:05;32.50;99.90
22607;DHT22;11470;20.968;105.834;2023-05-07T10:52:20;32.10;99.90
22607;DHT22;11470;20.968;105.834;2023-05-07T10:57:36;32.20;99.90
22607;DHT22;11470;20.968;105.834;2023-05-07T11:08:15;31.60;99.90
22607;DHT22;11470;20.968;105.834;2023-05-07T11:13:47;31.50;99.90
22607;DHT22;11470;20.968;105.834;2023-05-07T11:19:16;31.50;99.90
22607;DHT22;11470;20.968;105.834;2023-05-07T11:24:24;31.20;99.90
22607;DHT22;11470;20.968;105.834;2023-05-07T11:29:38;31.40;99.90
22607;DHT22;11470;20.968;105.834;2023-05-07T11:34:47;31.70;99.90
22607;DHT22;11470;20.968;105.834;2023-05-07T11:40:05;31.20;99.90
22607;DHT22;11470;20.968;105.834;2023-05-07T11:45:11;31.00;99.90
22607;DHT22;11470;20.968;105.834;2023-05-07T11:50:17;30.70;99.90
22607;DHT22;11470;20.968;105.834;2023-05-07T11:55:24;30.50;99.90
22607;DHT22;11470;20.968;105.834;2023-05-07T12:00:31;30.70;99.90
22607;DHT22;11470;20.968;105.834;2023-05-07T12:05:36;30.70;99.90
22607;DHT22;11470;20.968;105.834;2023-05-07T12:10:45;30.60;99.90
22607;DHT22;11470;20.968;105.834;2023-05-07T12:15:53;30.90;99.90
22607;DHT22;11470;20.968;105.834;2023-05-07T12:21:00;31.10;99.90
22607;DHT22;11470;20.968;105.834;2023-05-07T12:26:05;31.20;99.90
22607;DHT22;11470;20.968;105.834;2023-05-07T12:31:14;31.20;99.90
22607;DHT22;11470;20.968;105.834;2023-05-07T12:36:20;31.00;99.90
22607;DHT22;11470;20.968;105.834;2023-05-07T12:41:25;30.50;99.90
22607;DHT22;11470;20.968;105.834;2023-05-07T12:46:38;30.90;99.90
22607;DHT22;11470;20.968;105.834;2023-05-07T12:51:46;31.30;99.90
22607;DHT22;11470;20.968;105.834;2023-05-07T12:56:51;30.90;99.90
22607;DHT22;11470;20.968;105.834;2023-05-07T13:02:05;30.40;99.90
22607;DHT22;11470;20.968;105.834;2023-05-07T13:07:13;30.50;99.90
22607;DHT22;11470;20.968;105.834;2023-05-07T13:12:18;30.40;99.90
22607;DHT22;11470;20.968;105.834;2023-05-07T13:17:23;30.70;99.90
22607;DHT22;11470;20.968;105.834;2023-05-07T13:22:28;31.00;99.90
22607;DHT22;11470;20.968;105.834;2023-05-07T13:27:34;30.90;99.90
22607;DHT22;11470;20.968;105.834;2023-05-07T13:32:42;31.00;99.90
22607;DHT22;11470;20.968;105.834;2023-05-07T13:37:48;31.00;99.90
22607;DHT22;11470;20.968;105.834;2023-05-07T13:42:58;31.00;99.90
22607;DHT22;11470;20.968;105.834;2023-05-07T13:48:07;29.60;99.90
22607;DHT22;11470;20.968;105.834;2023-05-07T13:53:13;27.90;99.90
22607;DHT22;11470;20.968;105.834;2023-05-07T13:58:20;26.50;99.90
22607;DHT22;11470;20.968;105.834;2023-05-07T14:03:25;26.70;99.90
22607;DHT22;11470;20.968;105.834;2023-05-07T14:08:31;26.30;99.90
22607;DHT22;11470;20.968;105.834;2023-05-07T14:13:36;27.40;99.90
22607;DHT22;11470;20.968;105.834;2023-05-07T14:18:42;28.10;99.90
22607;DHT22;11470;20.968;105.834;2023-05-07T14:23:47;29.20;99.90
22607;DHT22;11470;20.968;105.834;2023-05-07T14:28:53;27.60;99.90
22607;DHT22;11470;20.968;105.834;2023-05-07T14:33:59;25.90;99.90
22607;DHT22;11470;20.968;105.834;2023-05-07T14:39:05;25.80;99.90
22607;DHT22;11470;20.968;105.834;2023-05-07T14:44:10;26.00;99.90
22607;DHT22;11470;20.968;105.834;2023-05-07T14:49:16;26.20;99.90
22607;DHT22;11470;20.968;105.834;2023-05-07T14:54:22;26.30;99.90
22607;DHT22;11470;20.968;105.834;2023-05-07T14:59:28;26.40;99.90
22607;DHT22;11470;20.968;105.834;2023-05-07T15:04:33;26.30;99.90
22607;DHT22;11470;20.968;105.834;2023-05-07T15:09:39;26.30;99.90
22607;DHT22;11470;20.968;105.834;2023-05-07T15:14:44;26.30;99.90
22607;DHT22;11470;20.968;105.834;2023-05-07T15:19:50;26.60;99.90
22607;DHT22;11470;20.968;105.834;2023-05-07T15:24:56;26.70;99.90
22607;DHT22;11470;20.968;105.834;2023-05-07T15:30:03;27.00;99.90
22607;DHT22;11470;20.968;105.834;2023-05-07T15:35:09;27.10;99.90
22607;DHT22;11470;20.968;105.834;2023-05-07T15:40:16;27.10;99.90
22607;DHT22;11470;20.968;105.834;2023-05-07T15:45:30;27.00;99.90
22607;DHT22;11470;20.968;105.834;2023-05-07T15:50:39;26.80;99.90
22607;DHT22;11470;20.968;105.834;2023-05-07T15:55:44;26.80;99.90
22607;DHT22;11470;20.968;105.834;2023-05-07T16:00:52;26.90;99.90
22607;DHT22;11470;20.968;105.834;2023-05-07T16:05:57;26.90;99.90
22607;DHT22;11470;20.968;105.834;2023-05-07T16:11:06;27.00;99.90
22607;DHT22;11470;20.968;105.834;2023-05-07T16:16:11;27.20;99.90
22607;DHT22;11470;20.968;105.834;2023-05-07T16:21:35;27.30;99.90
22607;DHT22;11470;20.968;105.834;2023-05-07T16:27:19;27.30;99.90
22607;DHT22;11470;20.968;105.834;2023-05-07T16:32:25;27.40;99.90
22607;DHT22;11470;20.968;105.834;2023-05-07T16:37:36;27.50;99.90
22607;DHT22;11470;20.968;105.834;2023-05-07T16:42:46;27.70;99.90
22607;DHT22;11470;20.968;105.834;2023-05-07T16:47:51;27.80;99.90
22607;DHT22;11470;20.968;105.834;2023-05-07T16:53:05;27.80;99.90
22607;DHT22;11470;20.968;105.834;2023-05-07T16:58:18;28.00;99.90
22607;DHT22;11470;20.968;105.834;2023-05-07T17:03:23;28.10;99.90
22607;DHT22;11470;20.968;105.834;2023-05-07T17:08:28;28.10;99.90
22607;DHT22;11470;20.968;105.834;2023-05-07T17:13:34;27.80;99.90
22607;DHT22;11470;20.968;105.834;2023-05-07T17:18:39;27.80;99.90
22607;DHT22;11470;20.968;105.834;2023-05-07T17:23:45;27.80;99.90
22607;DHT22;11470;20.968;105.834;2023-05-07T17:28:50;27.60;99.90
22607;DHT22;11470;20.968;105.834;2023-05-07T17:33:55;27.60;99.90
22607;DHT22;11470;20.968;105.834;2023-05-07T17:39:03;27.60;99.90
22607;DHT22;11470;20.968;105.834;2023-05-07T17:44:08;27.50;99.90
22607;DHT22;11470;20.968;105.834;2023-05-07T17:49:13;27.60;99.90
22607;DHT22;11470;20.968;105.834;2023-05-07T17:54:19;27.50;99.90
22607;DHT22;11470;20.968;105.834;2023-05-07T17:59:25;27.30;99.90
22607;DHT22;11470;20.968;105.834;2023-05-07T18:04:30;27.40;99.90
22607;DHT22;11470;20.968;105.834;2023-05-07T18:09:35;27.40;99.90
22607;DHT22;11470;20.968;105.834;2023-05-07T18:14:41;27.30;99.90
22607;DHT22;11470;20.968;105.834;2023-05-07T18:19:46;27.00;99.90
22607;DHT22;11470;20.968;105.834;2023-05-07T18:24:55;26.90;99.90
22607;DHT22;11470;20.968;105.834;2023-05-07T18:30:01;26.90;99.90
22607;DHT22;11470;20.968;105.834;2023-05-07T18:35:07;27.10;99.90
22607;DHT22;11470;20.968;105.834;2023-05-07T18:40:12;27.20;99.90
22607;DHT22;11470;20.968;105.834;2023-05-07T18:45:18;26.80;99.90
22607;DHT22;11470;20.968;105.834;2023-05-07T18:50:23;26.70;99.90
22607;DHT22;11470;20.968;105.834;2023-05-07T18:55:29;26.70;99.90
22607;DHT22;11470;20.968;105.834;2023-05-07T19:00:34;26.70;99.90
22607;DHT22;11470;20.968;105.834;2023-05-07T19:05:42;26.70;99.90
22607;DHT22;11470;20.968;105.834;2023-05-07T19:10:47;26.80;99.90
22607;DHT22;11470;20.968;105.834;2023-05-07T19:15:52;26.80;99.90
22607;DHT22;11470;20.968;105.834;2023-05-07T19:20:58;26.90;99.90
22607;DHT22;11470;20.968;105.834;2023-05-07T19:26:03;27.00;99.90
22607;DHT22;11470;20.968;105.834;2023-05-07T19:31:08;27.00;99.90
22607;DHT22;11470;20.968;105.834;2023-05-07T19:36:14;27.00;99.90
22607;DHT22;11470;20.968;105.834;2023-05-07T19:41:21;27.20;99.90
22607;DHT22;11470;20.968;105.834;2023-05-07T19:46:33;27.40;99.90
22607;DHT22;11470;20.968;105.834;2023-05-07T19:51:43;27.40;99.90
22607;DHT22;11470;20.968;105.834;2023-05-07T19:56:49;27.50;99.90
22607;DHT22;11470;20.968;105.834;2023-05-07T20:01:54;27.60;99.90
22607;DHT22;11470;20.968;105.834;2023-05-07T20:07:00;27.70;99.90
22607;DHT22;11470;20.968;105.834;2023-05-07T20:12:04;27.80;99.90
22607;DHT22;11470;20.968;105.834;2023-05-07T20:17:10;27.20;99.90
22607;DHT22;11470;20.968;105.834;2023-05-07T20:22:15;26.40;99.90
22607;DHT22;11470;20.968;105.834;2023-05-07T20:27:20;25.70;99.90
22607;DHT22;11470;20.968;105.834;2023-05-07T20:32:28;25.50;99.90
22607;DHT22;11470;20.968;105.834;2023-05-07T20:37:33;25.40;99.90
22607;DHT22;11470;20.968;105.834;2023-05-07T20:42:39;25.30;99.90
22607;DHT22;11470;20.968;105.834;2023-05-07T20:47:46;25.40;99.90
22607;DHT22;11470;20.968;105.834;2023-05-07T20:52:51;25.30;99.90
22607;DHT22;11470;20.968;105.834;2023-05-07T20:57:56;25.40;99.90
22607;DHT22;11470;20.968;105.834;2023-05-07T21:03:01;25.60;99.90
22607;DHT22;11470;20.968;105.834;2023-05-07T21:08:06;25.90;99.90
22607;DHT22;11470;20.968;105.834;2023-05-07T21:13:11;26.20;99.90
22607;DHT22;11470;20.968;105.834;2023-05-07T21:18:17;26.40;99.90
22607;DHT22;11470;20.968;105.834;2023-05-07T21:23:22;26.40;99.90
22607;DHT22;11470;20.968;105.834;2023-05-07T21:28:28;26.00;99.90
22607;DHT22;11470;20.968;105.834;2023-05-07T21:33:32;26.30;99.90
22607;DHT22;11470;20.968;105.834;2023-05-07T21:38:38;26.20;99.90
22607;DHT22;11470;20.968;105.834;2023-05-07T21:43:43;26.20;99.90
22607;DHT22;11470;20.968;105.834;2023-05-07T21:48:48;26.10;99.90
22607;DHT22;11470;20.968;105.834;2023-05-07T21:53:53;26.00;99.90
22607;DHT22;11470;20.968;105.834;2023-05-07T21:58:59;25.80;99.90
22607;DHT22;11470;20.968;105.834;2023-05-07T22:04:04;25.90;99.90
22607;DHT22;11470;20.968;105.834;2023-05-07T22:09:10;25.80;99.90
22607;DHT22;11470;20.968;105.834;2023-05-07T22:14:15;25.70;99.90
22607;DHT22;11470;20.968;105.834;2023-05-07T22:19:22;25.70;99.90
22607;DHT22;11470;20.968;105.834;2023-05-07T22:24:28;25.70;99.90
22607;DHT22;11470;20.968;105.834;2023-05-07T22:29:34;25.70;99.90
22607;DHT22;11470;20.968;105.834;2023-05-07T22:34:39;25.70;99.90
22607;DHT22;11470;20.968;105.834;2023-05-07T22:39:45;25.80;99.90
22607;DHT22;11470;20.968;105.834;2023-05-07T22:44:56;25.80;99.90
22607;DHT22;11470;20.968;105.834;2023-05-07T22:50:01;25.90;99.90
22607;DHT22;11470;20.968;105.834;2023-05-07T22:55:08;25.90;99.90
22607;DHT22;11470;20.968;105.834;2023-05-07T23:00:14;25.80;99.90
22607;DHT22;11470;20.968;105.834;2023-05-07T23:05:19;25.80;99.90
22607;DHT22;11470;20.968;105.834;2023-05-07T23:10:24;25.90;99.90
22607;DHT22;11470;20.968;105.834;2023-05-07T23:15:28;25.80;99.90
22607;DHT22;11470;20.968;105.834;2023-05-07T23:20:36;25.80;99.90
22607;DHT22;11470;20.968;105.834;2023-05-07T23:25:44;25.70;99.90
22607;DHT22;11470;20.968;105.834;2023-05-07T23:30:49;25.40;99.90
22607;DHT22;11470;20.968;105.834;2023-05-07T23:36:01;25.30;99.90
22607;DHT22;11470;20.968;105.834;2023-05-07T23:41:06;25.40;99.90
22607;DHT22;11470;20.968;105.834;2023-05-07T23:46:11;25.40;99.90
22607;DHT22;11470;20.968;105.834;2023-05-07T23:51:17;25.60;99.90
22607;DHT22;11470;20.968;105.834;2023-05-07T23:56:22;25.70;99.90
